createdAt,value
2023-03-17T00:00:01.181Z,0.029
2023-03-17T00:05:01.206Z,0.234
2023-03-17T00:10:01.266Z,0.123
2023-03-17T00:15:01.254Z,0
2023-03-17T00:20:01.133Z,0
2023-03-17T00:25:01.245Z,0
2023-03-17T00:30:01.193Z,0
2023-03-17T00:35:01.200Z,0
2023-03-17T00:40:01.236Z,0
2023-03-17T00:45:01.372Z,0
2023-03-17T00:50:01.425Z,0
2023-03-17T00:55:01.239Z,0
2023-03-17T01:00:01.224Z,0
2023-03-17T01:05:06.169Z,0.001
2023-03-17T01:10:01.274Z,0.017
2023-03-17T01:15:01.277Z,0.168
2023-03-17T01:20:01.231Z,0.269
2023-03-17T01:25:01.369Z,0.201
2023-03-17T01:30:01.254Z,0.242
2023-03-17T01:35:01.331Z,0.076
2023-03-17T01:40:01.305Z,0
2023-03-17T01:45:01.285Z,0
2023-03-17T01:50:01.265Z,0
2023-03-17T01:55:01.246Z,0
2023-03-17T02:00:01.343Z,0
2023-03-17T02:05:01.377Z,0
2023-03-17T02:10:01.349Z,0
2023-03-17T02:15:01.365Z,0
2023-03-17T02:20:01.392Z,0
2023-03-17T02:25:01.562Z,0
2023-03-17T02:30:01.440Z,0.029
2023-03-17T02:35:01.497Z,0.009000000000000001
2023-03-17T02:40:01.426Z,0.03
2023-03-17T02:45:01.471Z,0.226
2023-03-17T02:50:01.452Z,0
2023-03-17T02:55:01.586Z,0
2023-03-17T03:00:01.526Z,0
2023-03-17T03:05:01.322Z,0
2023-03-17T03:10:01.415Z,0
2023-03-17T03:15:01.328Z,0
2023-03-17T03:20:01.421Z,0
2023-03-17T03:25:01.317Z,0
2023-03-17T03:30:01.329Z,0
2023-03-17T03:35:01.365Z,0
2023-03-17T03:40:01.420Z,0.131
2023-03-17T03:45:01.435Z,0.07200000000000001
2023-03-17T03:50:01.552Z,0.029
2023-03-17T03:55:01.403Z,0.011
2023-03-17T04:00:01.384Z,0.043000000000000003
2023-03-17T04:05:01.425Z,0.169
2023-03-17T04:10:01.422Z,0.006
2023-03-17T04:15:01.436Z,0
2023-03-17T04:20:01.442Z,0
2023-03-17T04:25:01.378Z,0
2023-03-17T04:30:01.434Z,0
2023-03-17T04:35:01.424Z,0
2023-03-17T04:40:01.402Z,0
2023-03-17T04:45:01.571Z,0.07
2023-03-17T04:50:01.397Z,0.114
2023-03-17T04:55:01.423Z,0.081
2023-03-17T05:00:01.499Z,0.006
2023-03-17T05:05:01.455Z,0.017
2023-03-17T05:10:01.411Z,0.054
2023-03-17T05:15:01.422Z,0.067
2023-03-17T05:20:01.463Z,0
2023-03-17T05:25:01.460Z,0.10300000000000001
2023-03-17T05:30:01.514Z,0.12
2023-03-17T05:35:01.552Z,0.111
2023-03-17T05:40:01.619Z,0.046
2023-03-17T05:45:01.491Z,0.002
2023-03-17T05:50:01.421Z,0.009000000000000001
2023-03-17T05:55:01.454Z,27.714000000000002
2023-03-17T06:00:01.487Z,32.474000000000004
2023-03-17T06:05:01.494Z,29.32
2023-03-17T06:10:01.534Z,51.001
2023-03-17T06:15:01.578Z,44.02
2023-03-17T06:20:01.521Z,44.964
2023-03-17T06:25:01.527Z,45.093
2023-03-17T06:30:01.590Z,69.393
2023-03-17T06:35:01.584Z,92.937
2023-03-17T06:40:01.595Z,117.97500000000001
2023-03-17T06:45:01.640Z,109.902
2023-03-17T06:50:01.541Z,123.952
2023-03-17T06:55:01.539Z,162.769
2023-03-17T07:00:01.540Z,130.877
2023-03-17T07:05:01.724Z,167.87
2023-03-17T07:10:01.505Z,217.98000000000002
2023-03-17T07:15:01.539Z,209.877
2023-03-17T07:20:01.590Z,168.445
2023-03-17T07:25:01.609Z,223.491
2023-03-17T07:30:01.516Z,328.29
2023-03-17T07:35:01.547Z,279.42900000000003
2023-03-17T07:40:01.701Z,201.22400000000002
2023-03-17T07:45:01.550Z,177.30100000000002
2023-03-17T07:50:01.594Z,175.409
2023-03-17T07:55:01.778Z,191.893
2023-03-17T08:00:01.775Z,208.963
2023-03-17T08:05:01.605Z,273.963
2023-03-17T08:10:01.739Z,358.07
2023-03-17T08:15:01.756Z,500.795
2023-03-17T08:20:01.782Z,567.192
2023-03-17T08:25:01.714Z,630.091
2023-03-17T08:30:01.792Z,771.3870000000001
2023-03-17T08:35:01.789Z,1011.984
2023-03-17T08:40:01.811Z,1101.505
2023-03-17T08:45:01.734Z,1104.68
2023-03-17T08:50:01.736Z,1150.877
2023-03-17T08:55:01.782Z,1306.945
2023-03-17T09:00:01.777Z,1508.699
2023-03-17T09:05:01.809Z,1575.371
2023-03-17T09:10:01.825Z,1761.136
2023-03-17T09:15:01.748Z,1466.424
2023-03-17T09:20:01.802Z,1393.477
2023-03-17T09:25:01.887Z,1583.54
2023-03-17T09:30:01.762Z,1730.866
2023-03-17T09:35:01.795Z,2015.442
2023-03-17T09:40:01.792Z,2368.78
2023-03-17T09:45:01.818Z,2964.881
2023-03-17T09:50:01.746Z,3418.719
2023-03-17T09:55:01.701Z,2805.089
2023-03-17T10:00:01.721Z,2485.17
2023-03-17T10:05:01.795Z,2725.909
2023-03-17T10:10:01.738Z,3335.984
2023-03-17T10:15:01.674Z,3639.9970000000003
2023-03-17T10:20:01.764Z,4532.571
2023-03-17T10:25:03.448Z,4177.576
2023-03-17T10:30:01.813Z,3406.5860000000002
2023-03-17T10:35:01.748Z,2879.3250000000003
2023-03-17T10:40:01.777Z,2731.4990000000003
2023-03-17T10:45:01.693Z,2887.3450000000003
2023-03-17T10:50:01.707Z,3073.065
2023-03-17T10:55:01.745Z,3363.922
2023-03-17T11:00:01.784Z,2595.666
2023-03-17T11:05:01.772Z,2597.899
2023-03-17T11:10:01.815Z,4426.366
2023-03-17T11:15:01.781Z,6047.269
2023-03-17T11:20:01.817Z,6232.621
2023-03-17T11:25:01.717Z,5673.865
2023-03-17T11:30:01.727Z,4075.981
2023-03-17T11:35:01.765Z,4885.99
2023-03-17T11:40:01.855Z,6170.89
2023-03-17T11:45:01.815Z,5851.081
2023-03-17T11:50:01.775Z,5287.939
2023-03-17T11:55:01.854Z,4902.718
2023-03-17T12:00:01.832Z,5447.631
2023-03-17T12:05:01.841Z,4684.899
2023-03-17T12:10:01.818Z,3674.507
2023-03-17T12:15:01.816Z,5364.023
2023-03-17T12:20:01.789Z,3674.2470000000003
2023-03-17T12:25:01.830Z,2731.8740000000003
2023-03-17T12:30:01.812Z,2474.128
2023-03-17T12:35:01.813Z,3658.123
2023-03-17T12:40:02.259Z,3276.155
2023-03-17T12:45:01.819Z,1986.574
2023-03-17T12:50:01.946Z,1872.213
2023-03-17T12:55:01.863Z,2423.4410000000003
2023-03-17T13:00:01.885Z,2196.2870000000003
2023-03-17T13:05:01.814Z,2047.345
2023-03-17T13:10:02.041Z,2218.6330000000003
2023-03-17T13:15:01.979Z,2374.364
2023-03-17T13:20:01.798Z,2679.995
2023-03-17T13:25:01.823Z,2832.68
2023-03-17T13:30:01.853Z,2000.2930000000001
2023-03-17T13:35:01.911Z,2359.015
2023-03-17T13:40:01.911Z,3106.373
2023-03-17T13:45:01.837Z,3147.8160000000003
2023-03-17T13:50:01.902Z,2942.723
2023-03-17T13:55:01.905Z,2722.617
2023-03-17T14:00:01.859Z,2060.707
2023-03-17T14:05:01.949Z,1993.1100000000001
2023-03-17T14:10:01.954Z,1557.078
2023-03-17T14:15:01.965Z,1394.3220000000001
2023-03-17T14:20:01.920Z,1319.967
2023-03-17T14:25:01.924Z,1299.954
2023-03-17T14:30:01.855Z,1185.314
2023-03-17T14:35:01.961Z,885.864
2023-03-17T14:40:01.929Z,766.767
2023-03-17T14:45:01.964Z,817.083
2023-03-17T14:50:01.952Z,797.866
2023-03-17T14:55:01.905Z,523.7330000000001
2023-03-17T15:00:01.960Z,301.814
2023-03-17T15:05:01.936Z,271.617
2023-03-17T15:10:01.979Z,401.709
2023-03-17T15:15:01.885Z,667.318
2023-03-17T15:20:01.988Z,841.641
2023-03-17T15:25:01.915Z,850.28
2023-03-17T15:30:01.970Z,788.87
2023-03-17T15:35:02.025Z,849.984
2023-03-17T15:40:02.057Z,813.62
2023-03-17T15:45:02.016Z,683.8050000000001
2023-03-17T15:50:01.928Z,542.558
2023-03-17T15:55:02.017Z,441.496
2023-03-17T16:00:01.925Z,305.02
2023-03-17T16:05:02.022Z,193.365
2023-03-17T16:10:02.022Z,147.781
2023-03-17T16:15:05.486Z,154.742
2023-03-17T16:20:01.952Z,147.555
2023-03-17T16:25:02.031Z,138.46
2023-03-17T16:30:02.246Z,86.135
2023-03-17T16:35:02.039Z,43.14
2023-03-17T16:40:02.129Z,30.463
2023-03-17T16:45:02.084Z,37.911
2023-03-17T16:50:02.099Z,23.311
2023-03-17T16:55:02.064Z,0.132
2023-03-17T17:00:02.077Z,0.036000000000000004
2023-03-17T17:05:02.016Z,0.082
2023-03-17T17:10:02.139Z,0.049
2023-03-17T17:15:02.017Z,0.027
2023-03-17T17:20:02.218Z,0.028
2023-03-17T17:25:02.035Z,0.025
2023-03-17T17:30:02.073Z,0.044
2023-03-17T17:35:02.082Z,0.041
2023-03-17T17:40:02.035Z,0.029
2023-03-17T17:45:02.231Z,0.039
2023-03-17T17:50:02.356Z,0.10200000000000001
2023-03-17T17:55:02.258Z,0.129
2023-03-17T18:00:02.243Z,0.105
2023-03-17T18:05:02.408Z,0.201
2023-03-17T18:10:03.766Z,0.145
2023-03-17T18:15:02.224Z,0.093
2023-03-17T18:20:02.169Z,0.021
2023-03-17T18:25:02.123Z,0.107
2023-03-17T18:30:02.103Z,0.079
2023-03-17T18:35:02.230Z,0.10300000000000001
2023-03-17T18:40:13.705Z,0.11800000000000001
2023-03-17T18:45:02.110Z,0.092
2023-03-17T18:50:02.148Z,0.128
2023-03-17T18:55:02.129Z,0.067
2023-03-17T19:00:02.084Z,0.099
2023-03-17T19:05:02.270Z,0.078
2023-03-17T19:10:04.172Z,0.069
2023-03-17T19:15:02.161Z,0.059000000000000004
2023-03-17T19:20:02.113Z,0.019
2023-03-17T19:25:02.214Z,0.091
2023-03-17T19:30:02.209Z,0.127
2023-03-17T19:35:02.219Z,0.11900000000000001
2023-03-17T19:40:02.190Z,0.091
2023-03-17T19:45:02.198Z,0.08700000000000001
2023-03-17T19:50:02.151Z,0.022
2023-03-17T19:55:02.208Z,0.04
2023-03-17T20:00:02.207Z,0.027
2023-03-17T20:05:02.185Z,0.091
2023-03-17T20:10:02.305Z,0.101
2023-03-17T20:15:02.193Z,0.075
2023-03-17T20:20:02.408Z,0.083
2023-03-17T20:25:02.407Z,0.084
2023-03-17T20:30:02.357Z,0.10400000000000001
2023-03-17T20:35:02.412Z,0.04
2023-03-17T20:40:02.397Z,0.156
2023-03-17T20:45:02.410Z,0.371
2023-03-17T20:50:02.351Z,0.243
2023-03-17T20:55:02.537Z,0.116
2023-03-17T21:00:02.443Z,0.041
2023-03-17T21:05:02.362Z,0.026000000000000002
2023-03-17T21:10:04.088Z,0.027
2023-03-17T21:15:02.277Z,0.12
2023-03-17T21:20:02.267Z,0.147
2023-03-17T21:25:02.290Z,0.049
2023-03-17T21:30:02.254Z,0.027
2023-03-17T21:35:02.455Z,0.147
2023-03-17T21:40:02.278Z,0.122
2023-03-17T21:45:02.231Z,0.149
2023-03-17T21:50:02.319Z,0.122
2023-03-17T21:55:02.290Z,0.137
2023-03-17T22:00:02.307Z,0.08600000000000001
2023-03-17T22:05:02.376Z,0.037
2023-03-17T22:10:03.837Z,0.035
2023-03-17T22:15:02.259Z,0.054
2023-03-17T22:20:02.357Z,0.114
2023-03-17T22:25:02.347Z,0.162
2023-03-17T22:30:02.338Z,0.128
2023-03-17T22:35:02.317Z,0.079
2023-03-17T22:40:02.364Z,0.252
2023-03-17T22:45:02.283Z,0.395
2023-03-17T22:50:02.432Z,0.504
2023-03-17T22:55:02.366Z,0.308
2023-03-17T23:00:02.517Z,0.027
2023-03-17T23:05:02.508Z,0.059000000000000004
2023-03-17T23:10:02.637Z,0.04
2023-03-17T23:15:02.410Z,0.032
2023-03-17T23:20:02.329Z,0.063
2023-03-17T23:25:02.379Z,0.044
2023-03-17T23:30:02.393Z,0.053
2023-03-17T23:35:02.441Z,0.056
2023-03-17T23:40:02.396Z,0.064
2023-03-17T23:45:02.423Z,0.034
2023-03-17T23:50:02.388Z,0.068
2023-03-17T23:55:02.567Z,0.033
